Time;durP1;ratioP1;P1;durP2;ratioP2;P2;SDS_P1;SDS_P2;PMS_P1;PMS_P2;Temp;Humidity;BMP_temperature;BMP_pressure;BME280_temperature;BME280_humidity;BME280_pressure;Samples;Min_cycle;Max_cycle;Signal;HPM_P1;HPM_P2
2022/11/21 00:01:14;;;;;;;;;;;;;;;;;;4974676;28;1979;-46
2022/11/21 00:03:41;;;;;;;;;;;;;;;;;;4976044;28;1991;-48
2022/11/21 00:06:08;;;;;;;;;;;;;;;;;;4975812;28;1945;-51
2022/11/21 00:08:36;;;;;;;;;;;;;;;;;;4975694;28;2030;-48
2022/11/21 00:11:03;;;;;;;;;;;;;;;;;;4975565;28;2052;-47
2022/11/21 00:13:30;;;;;;;;;;;;;;;;;;4975790;28;2041;-45
2022/11/21 00:16:08;;;;;;;;;;;;;;;;;;4975412;28;1924;-45
2022/11/21 00:18:37;;;;;;;;;;;;;;;;;;4975794;28;1946;-48
2022/11/21 00:21:09;;;;;;;;;;;;;;;;;;4975158;28;1954;-47
2022/11/21 00:23:36;;;;;;;;;;;;;;;;;;4975636;28;2085;-45
2022/11/21 00:26:07;;;;;;;;;;;;;;;;;;4975714;28;1979;-45
2022/11/21 00:28:34;;;;;;;;;;;;;;;;;;4975635;28;1995;-48
2022/11/21 00:31:02;;;;;;;;;;;;;;;;;;4975345;28;2017;-49
2022/11/21 00:33:30;;;;;;;;;;;;;;;;;;4975357;28;2091;-47
2022/11/21 00:35:57;;;;;;;;;;;;;;;;;;4975383;28;1821;-47
2022/11/21 00:38:26;;;;;;;;;;;;;;;;;;4973961;28;1985;-46
2022/11/21 00:40:53;;;;;;;;;;;;;;;;;;4958076;28;1751;-45
2022/11/21 00:43:20;;;;;;;;;;;;;;;;;;4975024;28;2013;-47
2022/11/21 00:45:47;;;;;;;;;;;;;;;;;;4975182;28;1947;-45
2022/11/21 00:48:14;;;;;;;;;;;;;;;;;;4973990;28;2074;-46
2022/11/21 00:50:43;;;;;;;;;;;;;;;;;;4975185;28;1936;-44
2022/11/21 00:53:10;;;;;;;;;;;;;;;;;;4975353;28;2021;-47
2022/11/21 00:55:37;;;;;;;;;;;;;;;;;;4974914;28;2153;-48
2022/11/21 00:58:04;;;;;;;;;;;;;;;;;;4975076;28;1936;-47
2022/11/21 01:00:31;;;;;;;;;;;;;;;;;;4974606;28;1997;-46
2022/11/21 01:02:59;;;;;;;;;;;;;;;;;;4975399;28;2107;-46
2022/11/21 01:05:27;;;;;;;;;;;;;;;;;;4974691;28;2102;-46
2022/11/21 01:07:54;;;;;;;;;;;;;;;;;;4974732;28;1988;-46
2022/11/21 01:10:21;;;;;;;;;;;;;;;;;;4974776;28;2133;-44
2022/11/21 01:12:50;;;;;;;;;;;;;;;;;;4974718;28;2151;-45
2022/11/21 01:15:17;;;;;;;;;;;;;;;;;;4974642;28;2002;-45
2022/11/21 01:17:44;;;;;;;;;;;;;;;;;;4974690;28;1800;-46
2022/11/21 01:20:14;;;;;;;;;;;;;;;;;;4955432;29;1902;-45
2022/11/21 01:22:41;;;;;;;;;;;;;;;;;;4969994;28;2000;-45
2022/11/21 01:25:08;;;;;;;;;;;;;;;;;;4974385;28;2042;-49
2022/11/21 01:27:35;;;;;;;;;;;;;;;;;;4974317;28;2020;-47
2022/11/21 01:30:03;;;;;;;;;;;;;;;;;;4974361;28;2030;-48
2022/11/21 01:32:30;;;;;;;;;;;;;;;;;;4974395;28;2085;-45
2022/11/21 01:34:57;;;;;;;;;;;;;;;;;;4974221;28;1796;-46
2022/11/21 01:37:24;;;;;;;;;;;;;;;;;;4974384;28;2173;-47
2022/11/21 01:39:51;;;;;;;;;;;;;;;;;;4974167;28;1904;-47
2022/11/21 01:42:19;;;;;;;;;;;;;;;;;;4973953;28;1977;-47
2022/11/21 01:44:50;;;;;;;;;;;;;;;;;;4973878;28;2011;-48
2022/11/21 01:47:18;;;;;;;;;;;;;;;;;;4974307;28;1917;-47
2022/11/21 01:49:45;;;;;;;;;;;;;;;;;;4973872;28;1935;-48
2022/11/21 01:52:20;;;;;;;;;;;;;;;;;;4973883;28;2014;-45
2022/11/21 01:54:48;;;;;;;;;;;;;;;;;;4973183;28;2043;-44
2022/11/21 01:57:30;;;;;;;;;;;;;;;;;;4973849;28;2037;-45
2022/11/21 02:00:01;;;;;;;;;;;;;;;;;;4973300;28;1857;-46
2022/11/21 02:02:36;;;;;;;;;;;;;;;;;;4973861;28;2020;-46
2022/11/21 02:05:04;;;;;;;;;;;;;;;;;;4973483;28;1962;-46
2022/11/21 02:07:33;;;;;;;;;;;;;;;;;;4973775;28;2313;-47
2022/11/21 02:10:02;;;;;;;;;;;;;;;;;;4973447;28;2086;-46
2022/11/21 02:12:31;;;;;;;;;;;;;;;;;;4973516;28;2008;-47
2022/11/21 02:14:58;;;;;;;;;;;;;;;;;;4973499;28;1870;-48
2022/11/21 02:17:28;;;;;;;;;;;;;;;;;;4973664;28;1931;-49
2022/11/21 02:19:57;;;;;;;;;;;;;;;;;;4973439;28;1987;-48
2022/11/21 02:22:30;;;;;;;;;;;;;;;;;;4973286;28;1981;-50
2022/11/21 02:25:04;;;;;;;;;;;;;;;;;;4973356;28;1981;-46
2022/11/21 02:27:32;;;;;;;;;;;;;;;;;;4973487;28;2084;-47
2022/11/21 02:30:00;;;;;;;;;;;;;;;;;;4973271;28;2074;-47
2022/11/21 02:32:32;;;;;;;;;;;;;;;;;;4973059;28;1862;-49
2022/11/21 02:34:59;;;;;;;;;;;;;;;;;;4973091;28;2044;-45
2022/11/21 02:37:26;;;;;;;;;;;;;;;;;;4973227;28;1851;-47
2022/11/21 02:39:54;;;;;;;;;;;;;;;;;;4973111;28;1669;-52
2022/11/21 02:42:21;;;;;;;;;;;;;;;;;;4972898;28;2045;-51
2022/11/21 02:45:08;;;;;;;;;;;;;;;;;;4972760;28;2084;-46
2022/11/21 02:47:37;;;;;;;;;;;;;;;;;;4973119;28;1861;-49
2022/11/21 02:50:13;;;;;;;;;;;;;;;;;;4973031;28;1942;-49
2022/11/21 02:52:40;;;;;;;;;;;;;;;;;;4973172;28;2023;-48
2022/11/21 02:55:08;;;;;;;;;;;;;;;;;;4972833;28;1917;-48
2022/11/21 02:57:35;;;;;;;;;;;;;;;;;;4972855;28;2006;-46
2022/11/21 03:00:03;;;;;;;;;;;;;;;;;;4971242;28;1981;-51
2022/11/21 03:02:30;;;;;;;;;;;;;;;;;;4972794;28;1771;-47
2022/11/21 03:04:57;;;;;;;;;;;;;;;;;;4972584;28;2059;-48
2022/11/21 03:07:24;;;;;;;;;;;;;;;;;;4971597;28;1921;-45
2022/11/21 03:09:51;;;;;;;;;;;;;;;;;;4971172;28;2100;-49
2022/11/21 03:12:19;;;;;;;;;;;;;;;;;;4972052;28;1997;-45
2022/11/21 03:14:46;;;;;;;;;;;;;;;;;;4972801;28;1887;-50
2022/11/21 03:17:13;;;;;;;;;;;;;;;;;;4971348;28;2114;-49
2022/11/21 03:19:41;;;;;;;;;;;;;;;;;;4972893;28;2166;-45
2022/11/21 03:22:08;;;;;;;;;;;;;;;;;;4972310;28;2242;-46
2022/11/21 03:24:35;;;;;;;;;;;;;;;;;;4972326;28;1977;-46
2022/11/21 03:27:02;;;;;;;;;;;;;;;;;;4972605;28;1863;-45
2022/11/21 03:29:29;;;;;;;;;;;;;;;;;;4972407;28;2075;-46
2022/11/21 03:31:57;;;;;;;;;;;;;;;;;;4972265;28;1924;-46
2022/11/21 03:34:24;;;;;;;;;;;;;;;;;;4972317;28;2019;-46
2022/11/21 03:36:51;;;;;;;;;;;;;;;;;;4972253;28;1700;-46
2022/11/21 03:39:19;;;;;;;;;;;;;;;;;;4971247;28;1994;-47
2022/11/21 03:41:46;;;;;;;;;;;;;;;;;;4972189;28;2064;-50
2022/11/21 03:44:13;;;;;;;;;;;;;;;;;;4972557;28;2055;-47
2022/11/21 03:46:42;;;;;;;;;;;;;;;;;;4972377;28;2113;-47
2022/11/21 03:49:09;;;;;;;;;;;;;;;;;;4971311;28;2093;-47
2022/11/21 03:51:37;;;;;;;;;;;;;;;;;;4972127;28;1897;-45
2022/11/21 03:54:04;;;;;;;;;;;;;;;;;;4972134;28;1957;-46
2022/11/21 03:56:31;;;;;;;;;;;;;;;;;;4972214;28;1781;-49
2022/11/21 03:58:58;;;;;;;;;;;;;;;;;;4972246;28;2078;-46
2022/11/21 04:01:26;;;;;;;;;;;;;;;;;;4972185;28;2099;-48
2022/11/21 04:03:57;;;;;;;;;;;;;;;;;;4971864;28;1820;-47
2022/11/21 04:06:24;;;;;;;;;;;;;;;;;;4972301;28;1936;-48
2022/11/21 04:08:51;;;;;;;;;;;;;;;;;;4972064;28;1945;-45
2022/11/21 04:11:20;;;;;;;;;;;;;;;;;;4971974;28;2137;-45
2022/11/21 04:13:48;;;;;;;;;;;;;;;;;;4971983;28;1995;-45
2022/11/21 04:16:15;;;;;;;;;;;;;;;;;;4955129;28;1842;-48
2022/11/21 04:18:42;;;;;;;;;;;;;;;;;;4972171;28;2066;-47
2022/11/21 04:21:09;;;;;;;;;;;;;;;;;;4972181;28;1756;-48
2022/11/21 04:23:37;;;;;;;;;;;;;;;;;;4974665;28;1844;-49
2022/11/21 04:26:04;;;;;;;;;;;;;;;;;;4981947;28;2071;-48
2022/11/21 04:28:31;;;;;;;;;;;;;;;;;;4995171;28;1896;-45
2022/11/21 04:31:05;;;;;;;;;;;;;;;;;;4994620;28;1952;-49
2022/11/21 04:33:37;;;;;;;;;;;;;;;;;;4994943;28;2106;-50
2022/11/21 04:36:04;;;;;;;;;;;;;;;;;;4994614;28;1984;-49
2022/11/21 04:38:31;;;;;;;;;;;;;;;;;;4994952;28;2079;-49
2022/11/21 04:40:58;;;;;;;;;;;;;;;;;;4993518;28;1961;-48
2022/11/21 04:43:26;;;;;;;;;;;;;;;;;;4991652;28;2085;-47
2022/11/21 04:45:53;;;;;;;;;;;;;;;;;;4975118;28;1925;-47
2022/11/21 04:48:20;;;;;;;;;;;;;;;;;;4975068;28;2143;-46
2022/11/21 04:50:47;;;;;;;;;;;;;;;;;;4975113;28;2028;-47
2022/11/21 04:53:14;;;;;;;;;;;;;;;;;;4975217;28;2003;-48
2022/11/21 04:55:42;;;;;;;;;;;;;;;;;;4975311;28;1963;-49
2022/11/21 04:58:09;;;;;;;;;;;;;;;;;;4973656;28;1756;-47
2022/11/21 05:00:36;;;;;;;;;;;;;;;;;;4974879;28;1983;-47
2022/11/21 05:03:04;;;;;;;;;;;;;;;;;;4974973;28;2052;-45
2022/11/21 05:05:31;;;;;;;;;;;;;;;;;;4974909;28;2419;-47
2022/11/21 05:07:59;;;;;;;;;;;;;;;;;;4974915;28;1999;-46
2022/11/21 05:10:26;;;;;;;;;;;;;;;;;;4973505;28;1970;-47
2022/11/21 05:15:44;;;;;;;;;;;;;;;;;;4974873;28;2133;-47
2022/11/21 05:18:12;;;;;;;;;;;;;;;;;;4974792;28;1884;-45
2022/11/21 05:20:39;;;;;;;;;;;;;;;;;;4973350;28;2240;-48
2022/11/21 05:23:06;;;;;;;;;;;;;;;;;;4974082;28;2144;-45
2022/11/21 05:25:33;;;;;;;;;;;;;;;;;;4974316;28;1908;-47
2022/11/21 05:28:00;;;;;;;;;;;;;;;;;;4974441;28;2019;-48
2022/11/21 05:30:28;;;;;;;;;;;;;;;;;;4974399;28;2003;-46
2022/11/21 05:32:55;;;;;;;;;;;;;;;;;;4974442;28;1840;-50
2022/11/21 05:35:22;;;;;;;;;;;;;;;;;;4973841;28;2029;-47
2022/11/21 05:37:54;;;;;;;;;;;;;;;;;;4972687;28;1927;-44
2022/11/21 05:40:21;;;;;;;;;;;;;;;;;;4974297;28;1991;-46
2022/11/21 05:45:34;;;;;;;;;;;;;;;;;;4954761;29;2097;-48
2022/11/21 05:48:06;;;;;;;;;;;;;;;;;;4954817;28;2119;-47
2022/11/21 05:50:34;;;;;;;;;;;;;;;;;;4954779;28;1911;-48
2022/11/21 05:53:05;;;;;;;;;;;;;;;;;;4954602;29;2111;-47
2022/11/21 05:55:35;;;;;;;;;;;;;;;;;;4954494;29;1541;-44
2022/11/21 05:58:02;;;;;;;;;;;;;;;;;;4954541;28;2004;-46
2022/11/21 06:00:29;;;;;;;;;;;;;;;;;;4954436;28;2026;-47
2022/11/21 06:05:42;;;;;;;;;;;;;;;;;;4953259;29;1921;-47
2022/11/21 06:08:09;;;;;;;;;;;;;;;;;;4954414;28;2040;-45
2022/11/21 06:10:37;;;;;;;;;;;;;;;;;;4953267;29;2389;-45
2022/11/21 06:13:20;;;;;;;;;;;;;;;;;;4954031;28;1999;-47
2022/11/21 06:15:53;;;;;;;;;;;;;;;;;;4954189;28;1929;-45
2022/11/21 06:18:20;;;;;;;;;;;;;;;;;;4952932;29;1975;-48
2022/11/21 06:20:48;;;;;;;;;;;;;;;;;;4954525;28;2129;-47
2022/11/21 06:23:15;;;;;;;;;;;;;;;;;;4954346;29;2001;-49
2022/11/21 06:25:44;;;;;;;;;;;;;;;;;;4954094;29;2240;-47
2022/11/21 06:28:11;;;;;;;;;;;;;;;;;;4954103;28;1849;-50
2022/11/21 06:30:38;;;;;;;;;;;;;;;;;;4954209;28;2037;-48
2022/11/21 06:33:06;;;;;;;;;;;;;;;;;;4953802;28;1970;-46
2022/11/21 06:35:36;;;;;;;;;;;;;;;;;;4954018;28;2349;-48
2022/11/21 06:38:04;;;;;;;;;;;;;;;;;;4953538;28;1751;-48
2022/11/21 06:40:31;;;;;;;;;;;;;;;;;;4953833;28;1949;-48
2022/11/21 06:42:59;;;;;;;;;;;;;;;;;;4966180;28;2111;-45
2022/11/21 06:45:26;;;;;;;;;;;;;;;;;;4972396;28;1991;-47
2022/11/21 06:47:53;;;;;;;;;;;;;;;;;;4972548;28;1946;-48
2022/11/21 06:50:21;;;;;;;;;;;;;;;;;;4973106;28;1986;-48
2022/11/21 06:52:48;;;;;;;;;;;;;;;;;;4972914;28;2047;-48
2022/11/21 06:55:16;;;;;;;;;;;;;;;;;;4973348;28;1800;-46
2022/11/21 06:57:43;;;;;;;;;;;;;;;;;;4973230;28;2212;-44
2022/11/21 07:00:10;;;;;;;;;;;;;;;;;;4972574;28;1971;-47
2022/11/21 07:02:37;;;;;;;;;;;;;;;;;;4973146;28;2171;-48
2022/11/21 07:05:05;;;;;;;;;;;;;;;;;;4971082;28;2035;-45
2022/11/21 07:07:32;;;;;;;;;;;;;;;;;;4972709;28;2005;-50
2022/11/21 07:09:59;;;;;;;;;;;;;;;;;;4972513;28;1869;-45
2022/11/21 07:15:12;;;;;;;;;;;;;;;;;;4972805;28;1932;-47
2022/11/21 07:17:40;;;;;;;;;;;;;;;;;;4972449;28;1959;-46
2022/11/21 07:20:07;;;;;;;;;;;;;;;;;;4972329;28;1799;-48
2022/11/21 07:22:34;;;;;;;;;;;;;;;;;;4972421;28;2330;-47
2022/11/21 07:25:02;;;;;;;;;;;;;;;;;;4971482;28;2004;-45
2022/11/21 07:27:29;;;;;;;;;;;;;;;;;;4972520;28;1838;-47
2022/11/21 07:29:57;;;;;;;;;;;;;;;;;;4972262;28;1908;-48
2022/11/21 07:32:25;;;;;;;;;;;;;;;;;;4972331;28;1971;-50
2022/11/21 07:34:52;;;;;;;;;;;;;;;;;;4972257;28;2116;-45
2022/11/21 07:37:19;;;;;;;;;;;;;;;;;;4972537;28;1934;-45
2022/11/21 07:39:46;;;;;;;;;;;;;;;;;;4972503;28;1883;-47
2022/11/21 07:42:14;;;;;;;;;;;;;;;;;;4972543;28;1981;-47
2022/11/21 07:44:41;;;;;;;;;;;;;;;;;;4972112;28;2023;-42
2022/11/21 07:47:09;;;;;;;;;;;;;;;;;;4971915;28;2002;-47
2022/11/21 07:49:36;;;;;;;;;;;;;;;;;;4972118;28;2058;-48
2022/11/21 07:52:03;;;;;;;;;;;;;;;;;;4972378;28;1889;-46
2022/11/21 07:54:30;;;;;;;;;;;;;;;;;;4972251;28;2034;-46
2022/11/21 07:56:58;;;;;;;;;;;;;;;;;;4972424;28;1791;-44
2022/11/21 07:59:28;;;;;;;;;;;;;;;;;;4975887;28;2022;-47
2022/11/21 08:01:55;;;;;;;;;;;;;;;;;;4975838;28;1958;-49
2022/11/21 08:04:23;;;;;;;;;;;;;;;;;;4976046;28;1948;-46
2022/11/21 08:06:51;;;;;;;;;;;;;;;;;;4975631;28;2123;-48
2022/11/21 08:09:18;;;;;;;;;;;;;;;;;;4975975;28;1981;-45
2022/11/21 08:11:45;;;;;;;;;;;;;;;;;;4975813;28;2119;-45
2022/11/21 08:14:13;;;;;;;;;;;;;;;;;;4975972;28;1813;-45
2022/11/21 08:16:40;;;;;;;;;;;;;;;;;;4975729;28;1693;-48
2022/11/21 08:19:07;;;;;;;;;;;;;;;;;;4975602;28;1917;-47
2022/11/21 08:21:35;;;;;;;;;;;;;;;;;;4975647;28;2192;-47
2022/11/21 08:24:02;;;;;;;;;;;;;;;;;;4975353;28;2305;-46
2022/11/21 08:26:30;;;;;;;;;;;;;;;;;;4975161;28;1987;-46
2022/11/21 08:28:57;;;;;;;;;;;;;;;;;;4974215;28;2146;-46
2022/11/21 08:31:26;;;;;;;;;;;;;;;;;;4975513;28;2095;-45
2022/11/21 08:33:58;;;;;;;;;;;;;;;;;;4975452;28;1969;-46
2022/11/21 08:36:26;;;;;;;;;;;;;;;;;;4975288;28;1897;-45
2022/11/21 08:38:53;;;;;;;;;;;;;;;;;;4974041;28;2355;-47
2022/11/21 08:44:07;;;;;;;;;;;;;;;;;;4975036;28;2068;-46
2022/11/21 08:46:39;;;;;;;;;;;;;;;;;;4975149;28;2133;-48
2022/11/21 08:49:07;;;;;;;;;;;;;;;;;;4975069;28;1867;-47
2022/11/21 08:51:35;;;;;;;;;;;;;;;;;;4974812;28;2038;-46
2022/11/21 08:54:02;;;;;;;;;;;;;;;;;;4975034;28;1971;-47
2022/11/21 08:56:30;;;;;;;;;;;;;;;;;;4975054;28;1944;-46
2022/11/21 08:58:58;;;;;;;;;;;;;;;;;;4974503;28;1976;-46
2022/11/21 09:01:25;;;;;;;;;;;;;;;;;;4975012;28;1986;-47
2022/11/21 09:03:53;;;;;;;;;;;;;;;;;;4974914;28;2053;-47
2022/11/21 09:06:20;;;;;;;;;;;;;;;;;;4974535;28;1981;-46
2022/11/21 09:08:47;;;;;;;;;;;;;;;;;;4973909;28;2019;-46
2022/11/21 09:11:15;;;;;;;;;;;;;;;;;;4974682;28;2060;-48
2022/11/21 09:13:42;;;;;;;;;;;;;;;;;;4974781;28;1792;-45
2022/11/21 09:18:56;;;;;;;;;;;;;;;;;;4974735;28;1870;-43
2022/11/21 09:21:24;;;;;;;;;;;;;;;;;;4974665;28;1911;-47
2022/11/21 09:23:51;;;;;;;;;;;;;;;;;;4974335;28;2086;-45
2022/11/21 09:26:19;;;;;;;;;;;;;;;;;;4974685;28;1923;-48
2022/11/21 09:28:46;;;;;;;;;;;;;;;;;;4974624;28;1986;-47
2022/11/21 09:31:13;;;;;;;;;;;;;;;;;;4974386;28;1957;-48
2022/11/21 09:33:41;;;;;;;;;;;;;;;;;;4974281;28;2019;-44
2022/11/21 09:36:08;;;;;;;;;;;;;;;;;;4974052;28;2183;-50
2022/11/21 09:38:36;;;;;;;;;;;;;;;;;;4974344;28;2074;-49
2022/11/21 09:44:22;;;;;;;;;;;;;;;;;;4973907;28;1945;-48
2022/11/21 09:46:55;;;;;;;;;;;;;;;;;;4974080;28;2113;-49
2022/11/21 09:49:24;;;;;;;;;;;;;;;;;;4974206;28;1942;-46
2022/11/21 09:51:53;;;;;;;;;;;;;;;;;;4973762;28;2009;-47
2022/11/21 09:54:30;;;;;;;;;;;;;;;;;;4973943;28;1874;-46
2022/11/21 09:56:59;;;;;;;;;;;;;;;;;;4973910;28;2002;-48
2022/11/21 09:59:37;;;;;;;;;;;;;;;;;;4973762;28;2379;-47
2022/11/21 10:02:15;;;;;;;;;;;;;;;;;;4964607;28;1939;-44
2022/11/21 10:04:44;;;;;;;;;;;;;;;;;;4958494;28;2006;-47
2022/11/21 10:07:29;;;;;;;;;;;;;;;;;;4955602;28;2069;-48
2022/11/21 10:10:03;;;;;;;;;;;;;;;;;;4954902;28;1993;-47
2022/11/21 10:12:35;;;;;;;;;;;;;;;;;;4954213;28;1976;-47
2022/11/21 10:15:21;;;;;;;;;;;;;;;;;;4954147;29;1860;-45
2022/11/21 10:18:00;;;;;;;;;;;;;;;;;;4954088;28;1890;-45
2022/11/21 10:20:32;;;;;;;;;;;;;;;;;;4970509;28;2011;-46
2022/11/21 10:23:09;;;;;;;;;;;;;;;;;;4971096;28;1946;-48
2022/11/21 10:25:37;;;;;;;;;;;;;;;;;;4954069;28;1695;-45
2022/11/21 10:28:16;;;;;;;;;;;;;;;;;;4953288;28;1919;-45
2022/11/21 10:30:44;;;;;;;;;;;;;;;;;;4953055;29;1971;-50
2022/11/21 10:33:16;;;;;;;;;;;;;;;;;;4953577;29;1991;-48
2022/11/21 10:35:46;;;;;;;;;;;;;;;;;;4953899;28;1791;-46
2022/11/21 10:38:19;;;;;;;;;;;;;;;;;;4953985;29;1912;-50
2022/11/21 10:40:52;;;;;;;;;;;;;;;;;;4953973;28;2045;-47
2022/11/21 10:46:08;;;;;;;;;;;;;;;;;;4953397;29;1976;-48
2022/11/21 10:48:35;;;;;;;;;;;;;;;;;;4953744;29;1904;-48
2022/11/21 10:51:11;;;;;;;;;;;;;;;;;;4953897;28;1941;-47
2022/11/21 10:56:32;;;;;;;;;;;;;;;;;;4953310;28;1770;-47
2022/11/21 10:59:10;;;;;;;;;;;;;;;;;;4953310;29;2098;-43
2022/11/21 11:01:37;;;;;;;;;;;;;;;;;;4970611;28;1835;-48
2022/11/21 11:04:11;;;;;;;;;;;;;;;;;;4972586;28;2019;-46
2022/11/21 11:07:12;;;;;;;;;;;;;;;;;;4972432;28;1981;-47
2022/11/21 11:09:45;;;;;;;;;;;;;;;;;;4971351;28;2474;-49
2022/11/21 11:12:24;;;;;;;;;;;;;;;;;;4972504;28;1965;-48
2022/11/21 11:14:53;;;;;;;;;;;;;;;;;;4972613;28;2052;-45
2022/11/21 11:17:30;;;;;;;;;;;;;;;;;;4972338;28;2458;-49
2022/11/21 11:20:00;;;;;;;;;;;;;;;;;;4972444;28;1836;-49
2022/11/21 11:22:28;;;;;;;;;;;;;;;;;;4972456;28;1947;-49
2022/11/21 11:24:55;;;;;;;;;;;;;;;;;;4972488;28;2006;-49
2022/11/21 11:27:27;;;;;;;;;;;;;;;;;;4972381;28;2119;-47
2022/11/21 11:29:54;;;;;;;;;;;;;;;;;;4972176;28;1914;-49
2022/11/21 11:32:22;;;;;;;;;;;;;;;;;;4971808;28;1994;-44
2022/11/21 11:34:49;;;;;;;;;;;;;;;;;;4972377;28;2110;-48
2022/11/21 11:37:26;;;;;;;;;;;;;;;;;;4972511;28;1897;-48
2022/11/21 11:39:59;;;;;;;;;;;;;;;;;;4972216;28;2059;-46
2022/11/21 11:48:16;;;;;;;;;;;;;;;;;;4972386;28;1907;-49
2022/11/21 11:50:45;;;;;;;;;;;;;;;;;;4972272;28;2044;-48
2022/11/21 11:53:16;;;;;;;;;;;;;;;;;;4972355;28;2014;-50
2022/11/21 11:55:53;;;;;;;;;;;;;;;;;;4972265;28;1895;-49
2022/11/21 11:58:20;;;;;;;;;;;;;;;;;;4972187;28;2057;-47
2022/11/21 12:00:55;;;;;;;;;;;;;;;;;;4972251;28;2048;-47
2022/11/21 12:03:42;;;;;;;;;;;;;;;;;;4972014;28;1939;-46
2022/11/21 12:06:23;;;;;;;;;;;;;;;;;;4968873;28;2177;-43
2022/11/21 12:09:15;;;;;;;;;;;;;;;;;;4972064;28;1869;-44
2022/11/21 12:12:07;;;;;;;;;;;;;;;;;;4971548;28;2159;-46
2022/11/21 12:17:31;;;;;;;;;;;;;;;;;;4971779;28;2040;-45
2022/11/21 12:20:02;;;;;;;;;;;;;;;;;;4968783;28;1908;-47
2022/11/21 12:22:31;;;;;;;;;;;;;;;;;;4971890;28;1615;-48
2022/11/21 12:25:00;;;;;;;;;;;;;;;;;;4971751;28;2076;-49
2022/11/21 12:27:30;;;;;;;;;;;;;;;;;;4971774;28;1970;-48
2022/11/21 12:30:14;;;;;;;;;;;;;;;;;;4970393;28;1952;-47
2022/11/21 12:32:54;;;;;;;;;;;;;;;;;;4971634;28;1515;-48
2022/11/21 12:35:34;;;;;;;;;;;;;;;;;;4971712;28;1279;-50
2022/11/21 12:38:20;;;;;;;;;;;;;;;;;;4954467;28;1807;-49
2022/11/21 12:44:01;;;;;;;;;;;;;;;;;;4971593;28;1993;-49
2022/11/21 12:46:39;;;;;;;;;;;;;;;;;;4973676;28;2059;-51
2022/11/21 12:55:07;;;;;;;;;;;;;;;;;;4975009;28;1873;-50
2022/11/21 12:57:42;;;;;;;;;;;;;;;;;;4974621;28;1856;-47
2022/11/21 13:00:22;;;;;;;;;;;;;;;;;;4974510;28;2090;-45
2022/11/21 13:03:08;;;;;;;;;;;;;;;;;;4974620;28;2137;-47
2022/11/21 13:05:37;;;;;;;;;;;;;;;;;;4973357;28;1929;-47
2022/11/21 13:08:17;;;;;;;;;;;;;;;;;;4974053;28;2052;-48
2022/11/21 13:14:11;;;;;;;;;;;;;;;;;;4966515;28;2106;-49
2022/11/21 13:16:45;;;;;;;;;;;;;;;;;;4972435;28;2132;-43
2022/11/21 13:19:14;;;;;;;;;;;;;;;;;;4955047;28;1848;-50
2022/11/21 13:21:42;;;;;;;;;;;;;;;;;;4955241;28;2116;-46
2022/11/21 13:24:10;;;;;;;;;;;;;;;;;;4955059;28;1944;-47
2022/11/21 13:26:41;;;;;;;;;;;;;;;;;;4954652;29;2090;-47
2022/11/21 13:29:14;;;;;;;;;;;;;;;;;;4955028;29;2145;-49
2022/11/21 13:31:42;;;;;;;;;;;;;;;;;;4954909;28;1931;-47
2022/11/21 13:34:33;;;;;;;;;;;;;;;;;;4973480;28;2023;-50
2022/11/21 13:37:00;;;;;;;;;;;;;;;;;;4971125;28;1882;-48
2022/11/21 13:39:29;;;;;;;;;;;;;;;;;;4973925;28;2027;-48
2022/11/21 13:44:46;;;;;;;;;;;;;;;;;;4972899;28;1992;-47
2022/11/21 13:47:33;;;;;;;;;;;;;;;;;;4974082;28;1914;-50
2022/11/21 13:50:03;;;;;;;;;;;;;;;;;;4943971;28;1581;-51
2022/11/21 13:52:31;;;;;;;;;;;;;;;;;;4972441;28;2131;-51
2022/11/21 13:55:17;;;;;;;;;;;;;;;;;;4973334;28;1863;-47
2022/11/21 13:57:44;;;;;;;;;;;;;;;;;;4973889;28;1959;-45
2022/11/21 14:00:37;;;;;;;;;;;;;;;;;;4973358;28;1409;-43
2022/11/21 14:03:07;;;;;;;;;;;;;;;;;;4973761;28;1873;-49
2022/11/21 14:05:46;;;;;;;;;;;;;;;;;;4973378;28;1993;-45
2022/11/21 14:08:21;;;;;;;;;;;;;;;;;;4973161;28;2019;-46
2022/11/21 14:10:51;;;;;;;;;;;;;;;;;;4973384;28;2254;-51
2022/11/21 14:13:39;;;;;;;;;;;;;;;;;;4973707;28;1981;-48
2022/11/21 14:16:24;;;;;;;;;;;;;;;;;;4973009;28;2014;-46
2022/11/21 14:18:52;;;;;;;;;;;;;;;;;;4973167;28;2062;-48
2022/11/21 14:21:19;;;;;;;;;;;;;;;;;;4973370;28;2093;-49
2022/11/21 14:23:48;;;;;;;;;;;;;;;;;;4973355;28;1817;-48
2022/11/21 14:26:18;;;;;;;;;;;;;;;;;;4973426;28;2032;-48
2022/11/21 14:28:46;;;;;;;;;;;;;;;;;;4973246;28;1916;-49
2022/11/21 14:31:13;;;;;;;;;;;;;;;;;;4972606;28;2143;-48
2022/11/21 14:33:42;;;;;;;;;;;;;;;;;;4973234;28;1867;-47
2022/11/21 14:36:12;;;;;;;;;;;;;;;;;;4972905;28;2001;-47
2022/11/21 14:38:39;;;;;;;;;;;;;;;;;;4972966;28;2037;-48
2022/11/21 14:41:22;;;;;;;;;;;;;;;;;;4972812;28;1804;-45
2022/11/21 14:44:00;;;;;;;;;;;;;;;;;;4972735;28;2006;-48
2022/11/21 14:46:32;;;;;;;;;;;;;;;;;;4972656;28;2276;-42
2022/11/21 14:49:16;;;;;;;;;;;;;;;;;;4972802;28;1989;-46
2022/11/21 14:51:50;;;;;;;;;;;;;;;;;;4972812;28;1818;-49
2022/11/21 14:54:19;;;;;;;;;;;;;;;;;;4972045;28;1792;-49
2022/11/21 14:56:48;;;;;;;;;;;;;;;;;;4969456;28;1999;-46
2022/11/21 14:59:23;;;;;;;;;;;;;;;;;;4972843;28;2020;-47
2022/11/21 15:01:54;;;;;;;;;;;;;;;;;;4972377;28;1255;-46
2022/11/21 15:04:26;;;;;;;;;;;;;;;;;;4972622;28;1907;-46
2022/11/21 15:06:53;;;;;;;;;;;;;;;;;;4971831;28;1907;-46
2022/11/21 15:09:21;;;;;;;;;;;;;;;;;;4972571;28;1882;-52
2022/11/21 15:12:09;;;;;;;;;;;;;;;;;;4972475;28;1993;-47
2022/11/21 15:14:45;;;;;;;;;;;;;;;;;;4972671;28;2026;-47
2022/11/21 15:17:15;;;;;;;;;;;;;;;;;;4972298;28;1656;-45
2022/11/21 15:19:43;;;;;;;;;;;;;;;;;;4972436;28;2023;-47
2022/11/21 15:22:28;;;;;;;;;;;;;;;;;;4972272;28;2041;-46
2022/11/21 15:25:16;;;;;;;;;;;;;;;;;;4972339;28;2020;-46
2022/11/21 15:27:45;;;;;;;;;;;;;;;;;;4972284;28;1996;-46
2022/11/21 15:30:12;;;;;;;;;;;;;;;;;;4972385;28;1942;-47
2022/11/21 15:32:59;;;;;;;;;;;;;;;;;;4972297;28;1941;-46
2022/11/21 15:35:42;;;;;;;;;;;;;;;;;;4972455;28;2066;-46
2022/11/21 15:38:12;;;;;;;;;;;;;;;;;;4972190;28;2323;-47
2022/11/21 15:40:39;;;;;;;;;;;;;;;;;;4972356;28;1980;-46
2022/11/21 15:43:31;;;;;;;;;;;;;;;;;;4972088;28;1973;-48
2022/11/21 15:46:03;;;;;;;;;;;;;;;;;;4971929;28;1612;-47
2022/11/21 15:48:30;;;;;;;;;;;;;;;;;;4972009;28;1961;-48
2022/11/21 15:50:57;;;;;;;;;;;;;;;;;;4972373;28;1904;-48
2022/11/21 15:53:25;;;;;;;;;;;;;;;;;;4972023;28;2096;-45
2022/11/21 15:55:52;;;;;;;;;;;;;;;;;;4972162;28;1939;-46
2022/11/21 15:58:19;;;;;;;;;;;;;;;;;;4972155;28;1807;-47
2022/11/21 16:00:46;;;;;;;;;;;;;;;;;;4971916;28;2064;-46
2022/11/21 16:03:14;;;;;;;;;;;;;;;;;;4972205;28;2084;-48
2022/11/21 16:05:41;;;;;;;;;;;;;;;;;;4971695;28;1924;-46
2022/11/21 16:08:08;;;;;;;;;;;;;;;;;;4971874;28;2149;-50
2022/11/21 16:10:35;;;;;;;;;;;;;;;;;;4971820;28;2552;-46
2022/11/21 16:13:03;;;;;;;;;;;;;;;;;;4972047;28;1919;-47
2022/11/21 16:15:30;;;;;;;;;;;;;;;;;;4970604;28;1806;-49
2022/11/21 16:17:58;;;;;;;;;;;;;;;;;;4972101;28;1923;-47
2022/11/21 16:20:25;;;;;;;;;;;;;;;;;;4975823;28;1937;-52
2022/11/21 16:22:53;;;;;;;;;;;;;;;;;;4975538;28;2142;-52
2022/11/21 16:25:20;;;;;;;;;;;;;;;;;;4974502;28;1982;-47
2022/11/21 16:27:47;;;;;;;;;;;;;;;;;;4975409;28;2015;-46
2022/11/21 16:30:15;;;;;;;;;;;;;;;;;;4975178;28;2037;-47
2022/11/21 16:32:42;;;;;;;;;;;;;;;;;;4975655;28;1915;-48
2022/11/21 16:35:09;;;;;;;;;;;;;;;;;;4975300;28;1926;-48
2022/11/21 16:37:36;;;;;;;;;;;;;;;;;;4975470;28;1913;-49
2022/11/21 16:40:04;;;;;;;;;;;;;;;;;;4975302;28;1972;-50
2022/11/21 16:42:31;;;;;;;;;;;;;;;;;;4975211;28;1889;-51
2022/11/21 16:45:00;;;;;;;;;;;;;;;;;;4975150;28;1953;-51
2022/11/21 16:47:27;;;;;;;;;;;;;;;;;;4974969;28;2202;-50
2022/11/21 16:49:54;;;;;;;;;;;;;;;;;;4975044;28;2055;-49
2022/11/21 16:52:22;;;;;;;;;;;;;;;;;;4975186;28;1816;-47
2022/11/21 16:54:50;;;;;;;;;;;;;;;;;;4975039;28;1893;-48
2022/11/21 16:57:17;;;;;;;;;;;;;;;;;;4975013;28;1946;-49
2022/11/21 16:59:44;;;;;;;;;;;;;;;;;;4974794;28;2107;-47
2022/11/21 17:02:12;;;;;;;;;;;;;;;;;;4974865;28;2111;-48
2022/11/21 17:04:40;;;;;;;;;;;;;;;;;;4973656;28;1754;-48
2022/11/21 17:07:07;;;;;;;;;;;;;;;;;;4974770;28;1942;-50
2022/11/21 17:09:34;;;;;;;;;;;;;;;;;;4974630;28;2062;-51
2022/11/21 17:12:02;;;;;;;;;;;;;;;;;;4974535;28;2066;-49
2022/11/21 17:14:29;;;;;;;;;;;;;;;;;;4975078;28;1931;-52
2022/11/21 17:16:57;;;;;;;;;;;;;;;;;;4973263;28;1778;-52
2022/11/21 17:19:27;;;;;;;;;;;;;;;;;;4974681;28;1787;-51
2022/11/21 17:21:55;;;;;;;;;;;;;;;;;;4974552;28;2008;-48
2022/11/21 17:24:22;;;;;;;;;;;;;;;;;;4974388;28;1967;-50
2022/11/21 17:26:49;;;;;;;;;;;;;;;;;;4974583;28;1981;-47
2022/11/21 17:29:16;;;;;;;;;;;;;;;;;;4974649;28;1916;-51
2022/11/21 17:31:43;;;;;;;;;;;;;;;;;;4973778;28;1928;-48
2022/11/21 17:34:12;;;;;;;;;;;;;;;;;;4974366;28;2063;-50
2022/11/21 17:36:39;;;;;;;;;;;;;;;;;;4974119;28;1990;-50
2022/11/21 17:39:06;;;;;;;;;;;;;;;;;;4973017;28;2197;-49
2022/11/21 17:41:33;;;;;;;;;;;;;;;;;;4974237;28;1998;-49
2022/11/21 17:44:01;;;;;;;;;;;;;;;;;;4974155;28;2265;-51
2022/11/21 17:46:28;;;;;;;;;;;;;;;;;;4974232;28;1809;-49
2022/11/21 17:48:56;;;;;;;;;;;;;;;;;;4973944;28;2206;-49
2022/11/21 17:51:26;;;;;;;;;;;;;;;;;;4974110;28;1950;-45
2022/11/21 17:53:53;;;;;;;;;;;;;;;;;;4973964;28;1912;-48
2022/11/21 17:56:22;;;;;;;;;;;;;;;;;;4973986;28;2047;-46
2022/11/21 17:58:50;;;;;;;;;;;;;;;;;;4973940;28;1922;-48
2022/11/21 18:01:18;;;;;;;;;;;;;;;;;;4974065;28;1995;-45
2022/11/21 18:03:46;;;;;;;;;;;;;;;;;;4973067;28;1853;-46
2022/11/21 18:06:15;;;;;;;;;;;;;;;;;;4973750;28;2165;-49
2022/11/21 18:08:44;;;;;;;;;;;;;;;;;;4973734;28;2047;-46
2022/11/21 18:11:12;;;;;;;;;;;;;;;;;;4973959;28;2035;-49